Time;durP1;ratioP1;P1;durP2;ratioP2;P2;SDS_P1;SDS_P2;PMS_P1;PMS_P2;Temp;Humidity;BMP_temperature;BMP_pressure;BME280_temperature;BME280_humidity;BME280_pressure;Samples;Min_cycle;Max_cycle;Signal;HPM_P1;HPM_P2
2021/10/29 00:07:10;;;;;;;914.67;838.90;;;8.10;99.90;;;;;;6136745;23;20501;-84
2021/10/29 00:10:02;;;;;;;925.10;850.90;;;8.10;99.90;;;;;;6166260;23;20909;-84
2021/10/29 00:12:55;;;;;;;;;;;;;;;;;;;;;
2021/10/29 00:18:36;;;;;;;912.53;840.10;;;8.00;99.90;;;;;;6149824;23;20406;-86
2021/10/29 00:21:14;;;;;;;916.63;844.27;;;8.20;99.90;;;;;;6156455;23;20401;-86
2021/10/29 00:23:51;;;;;;;909.33;836.30;;;8.10;99.90;;;;;;6156364;23;20484;-87
2021/10/29 00:26:40;;;;;;;910.73;837.37;;;8.00;99.90;;;;;;6165792;23;20414;-87
2021/10/29 00:29:14;;;;;;;919.90;845.13;;;8.00;99.90;;;;;;6166241;23;20900;-86
2021/10/29 00:32:07;;;;;;;923.00;847.00;;;8.10;99.90;;;;;;6165234;23;20410;-85
2021/10/29 00:37:27;;;;;;;900.07;825.00;;;8.00;99.90;;;;;;6153591;23;20414;-86
2021/10/29 00:40:00;;;;;;;902.47;828.00;;;8.10;99.90;;;;;;6166198;23;20497;-85
2021/10/29 00:42:44;;;;;;;910.20;835.37;;;8.00;99.90;;;;;;6166056;23;20413;-87
2021/10/29 00:51:17;;;;;;;909.40;835.27;;;7.90;99.90;;;;;;6093818;23;20408;-85
2021/10/29 00:56:46;;;;;;;929.33;852.93;;;7.80;99.90;;;;;;6093442;23;20410;-87
2021/10/29 00:59:34;;;;;;;;;;;;;;;;;;;;;
2021/10/29 01:02:12;;;;;;;929.60;853.50;;;8.00;99.90;;;;;;6107091;23;20388;-86
2021/10/29 01:05:10;;;;;;;;;;;;;;;;;;;;;
2021/10/29 01:07:45;;;;;;;921.37;846.33;;;8.00;99.90;;;;;;6106715;23;20412;-87
2021/10/29 01:10:36;;;;;;;926.77;850.40;;;7.90;99.90;;;;;;6106705;23;20437;-88
2021/10/29 01:13:28;;;;;;;929.27;853.60;;;7.90;99.90;;;;;;6096748;23;20416;-86
2021/10/29 01:16:09;;;;;;;923.60;849.20;;;8.00;99.90;;;;;;6106668;23;20422;-88
2021/10/29 01:18:44;;;;;;;925.27;850.47;;;8.00;99.90;;;;;;6105704;23;20518;-87
2021/10/29 01:26:58;;;;;;;929.77;854.57;;;7.90;99.90;;;;;;6096561;23;20411;-87
2021/10/29 01:35:53;;;;;;;927.27;850.13;;;7.80;99.90;;;;;;6093516;23;20415;-87
2021/10/29 01:38:37;;;;;;;926.13;849.70;;;7.80;99.90;;;;;;6106902;23;20478;-86
2021/10/29 01:41:09;;;;;;;925.00;848.10;;;7.80;99.90;;;;;;6106578;23;20404;-87
2021/10/29 01:47:00;;;;;;;917.20;838.60;;;7.80;99.90;;;;;;6057296;23;20494;-87
2021/10/29 01:52:47;;;;;;;;;;;;;;;;;;;;;
2021/10/29 01:55:39;;;;;;;927.70;849.20;;;7.80;99.90;;;;;;6106507;23;20424;-84
2021/10/29 01:58:18;;;;;;;;;;;;;;;;;;;;;
2021/10/29 02:01:05;;;;;;;932.93;855.33;;;7.70;99.90;;;;;;6106798;23;20444;-88
2021/10/29 02:03:43;;;;;;;931.73;853.10;;;7.60;99.90;;;;;;6104929;23;20482;-87
2021/10/29 02:06:20;;;;;;;931.03;851.33;;;7.70;99.90;;;;;;6096883;23;20408;-87
2021/10/29 02:11:36;;;;;;;928.37;847.87;;;7.70;99.90;;;;;;6131344;23;20465;-85
2021/10/29 02:14:38;;;;;;;;;;;;;;;;;;;;;
2021/10/29 02:17:23;;;;;;;923.73;844.67;;;7.60;99.90;;;;;;6167248;23;20413;-85
2021/10/29 02:19:58;;;;;;;919.13;838.07;;;7.60;99.90;;;;;;6165709;23;20420;-86
2021/10/29 02:22:26;;;;;;;919.70;839.83;;;7.60;99.90;;;;;;6166988;23;20445;-85
2021/10/29 02:25:07;;;;;;;929.43;848.90;;;7.60;99.90;;;;;;6157369;23;20402;-84
2021/10/29 02:27:59;;;;;;;927.10;847.30;;;7.50;99.90;;;;;;6167143;23;20497;-85
2021/10/29 02:30:40;;;;;;;;;;;;;;;;;;;;;
2021/10/29 02:33:44;;;;;;;939.27;858.67;;;7.60;99.90;;;;;;6165646;23;20412;-85
2021/10/29 02:36:15;;;;;;;928.97;848.10;;;7.60;99.90;;;;;;6148396;23;20737;-85
2021/10/29 02:38:50;;;;;;;933.97;853.03;;;7.50;99.90;;;;;;6167272;23;20406;-84
2021/10/29 02:41:20;;;;;;;927.50;847.70;;;7.60;99.90;;;;;;6157213;23;20409;-84
2021/10/29 02:43:56;;;;;;;935.30;856.10;;;7.70;99.90;;;;;;6157381;23;20414;-84
2021/10/29 02:46:36;;;;;;;932.10;852.90;;;7.70;99.90;;;;;;6167164;23;20413;-84
2021/10/29 02:49:21;;;;;;;933.20;854.07;;;7.70;99.90;;;;;;6165793;23;20416;-84
2021/10/29 02:52:07;;;;;;;919.60;842.60;;;7.80;99.90;;;;;;6166896;23;20437;-84
2021/10/29 02:54:42;;;;;;;920.57;843.63;;;7.80;99.90;;;;;;6167030;23;20740;-84
2021/10/29 02:57:20;;;;;;;904.40;829.30;;;7.80;99.90;;;;;;6157305;23;20409;-85
2021/10/29 03:00:02;;;;;;;906.90;832.00;;;7.70;99.90;;;;;;6156861;23;20442;-85
2021/10/29 03:02:51;;;;;;;;;;;;;;;;;;;;;
2021/10/29 03:08:15;;;;;;;895.37;821.03;;;7.60;99.90;;;;;;6164758;23;20418;-85
2021/10/29 03:11:02;;;;;;;909.33;835.67;;;7.70;99.90;;;;;;6166741;23;20496;-85
2021/10/29 03:14:05;;;;;;;909.87;837.37;;;7.70;99.90;;;;;;6166708;23;20410;-87
2021/10/29 03:17:02;;;;;;;920.57;847.67;;;7.60;99.90;;;;;;6166599;23;20472;-87
2021/10/29 03:19:38;;;;;;;905.77;833.87;;;7.70;99.90;;;;;;6135028;23;20434;-87
2021/10/29 03:22:11;;;;;;;906.20;835.70;;;7.70;99.90;;;;;;6156865;23;20410;-87
2021/10/29 03:24:43;;;;;;;896.03;825.87;;;7.70;99.90;;;;;;6157120;23;20413;-87
2021/10/29 03:30:02;;;;;;;894.83;824.77;;;7.60;99.90;;;;;;6129002;23;20410;-87
2021/10/29 03:32:47;;;;;;;;;;;;;;;;;;;;;
2021/10/29 03:35:23;;;;;;;898.57;828.00;;;7.70;99.90;;;;;;6166695;23;20936;-86
2021/10/29 03:40:58;;;;;;;881.97;812.93;;;7.60;99.90;;;;;;6166593;23;20389;-78
2021/10/29 03:43:41;;;;;;;872.20;803.90;;;7.60;99.90;;;;;;6156401;23;20408;-90
2021/10/29 03:46:16;;;;;;;875.40;806.77;;;7.60;99.90;;;;;;6166612;23;20410;-87
2021/10/29 03:48:58;;;;;;;873.13;805.70;;;7.70;99.90;;;;;;6155644;23;20697;-89
2021/10/29 03:51:39;;;;;;;869.83;802.30;;;7.70;99.90;;;;;;6156188;23;20882;-88
2021/10/29 03:57:29;;;;;;;876.00;807.27;;;7.70;99.90;;;;;;6154538;23;20756;-88
2021/10/29 04:00:09;;;;;;;874.00;805.87;;;7.60;99.90;;;;;;6165850;23;20434;-89
2021/10/29 04:03:14;;;;;;;;;;;;;;;;;;;;;
2021/10/29 04:05:50;;;;;;;836.63;769.77;;;7.50;99.90;;;;;;6166213;23;20900;-85
2021/10/29 04:08:20;;;;;;;839.83;773.73;;;7.70;99.90;;;;;;6166357;23;20745;-85
2021/10/29 04:10:55;;;;;;;844.20;777.73;;;7.70;99.90;;;;;;6165724;23;20457;-90
2021/10/29 04:13:33;;;;;;;848.47;782.80;;;7.60;99.90;;;;;;6156530;23;20456;-88
2021/10/29 04:16:06;;;;;;;867.60;801.30;;;7.70;99.90;;;;;;6166005;23;20446;-88
2021/10/29 04:18:57;;;;;;;854.17;788.37;;;7.60;99.90;;;;;;6164731;23;20493;-87
2021/10/29 04:21:33;;;;;;;867.63;800.80;;;7.60;99.90;;;;;;6156362;23;20453;-88
2021/10/29 04:24:05;;;;;;;849.90;784.80;;;7.60;99.90;;;;;;6156263;23;20402;-88
2021/10/29 04:29:34;;;;;;;847.97;784.80;;;7.60;99.90;;;;;;6133910;23;20474;-85
2021/10/29 04:32:14;;;;;;;841.07;777.57;;;7.50;99.90;;;;;;6166004;23;20744;-85
2021/10/29 04:34:46;;;;;;;839.93;777.13;;;7.70;99.90;;;;;;6164356;23;20500;-85
2021/10/29 04:37:23;;;;;;;815.27;753.70;;;7.80;99.90;;;;;;6156297;23;20417;-85
2021/10/29 04:40:05;;;;;;;832.93;771.50;;;7.80;99.90;;;;;;6165714;23;20960;-84
2021/10/29 04:42:40;;;;;;;832.37;771.60;;;7.80;99.90;;;;;;6165669;23;20420;-85
2021/10/29 04:45:10;;;;;;;826.50;765.47;;;7.80;99.90;;;;;;6166098;23;20420;-85
2021/10/29 04:47:44;;;;;;;833.67;773.20;;;7.80;99.90;;;;;;6156262;23;20390;-83
2021/10/29 04:50:25;;;;;;;824.47;764.70;;;7.80;99.90;;;;;;6156122;23;20465;-84
2021/10/29 04:53:37;;;;;;;835.90;775.20;;;7.90;99.90;;;;;;6156120;23;20406;-85
2021/10/29 04:56:49;;;;;;;;;;;;;;;;;;;;;
2021/10/29 04:59:19;;;;;;;821.03;761.83;;;8.00;99.90;;;;;;6165923;23;20438;-87
2021/10/29 05:01:46;;;;;;;811.60;753.80;;;8.00;99.90;;;;;;6166067;23;20413;-88
2021/10/29 05:04:14;;;;;;;819.87;761.70;;;7.90;99.90;;;;;;6154789;23;20406;-90
2021/10/29 05:06:42;;;;;;;793.80;736.50;;;7.90;99.90;;;;;;6165394;23;20424;-87
2021/10/29 05:09:12;;;;;;;799.60;742.70;;;7.90;99.90;;;;;;6165658;23;20413;-87
2021/10/29 05:11:39;;;;;;;802.90;746.00;;;8.00;99.90;;;;;;6156145;23;20408;-88
2021/10/29 05:14:06;;;;;;;792.97;736.97;;;7.90;99.90;;;;;;6165249;23;20410;-85
2021/10/29 05:16:39;;;;;;;792.40;735.80;;;7.90;99.90;;;;;;6165558;23;20963;-83
2021/10/29 05:19:10;;;;;;;796.80;740.20;;;7.80;99.90;;;;;;6164744;23;20733;-85
2021/10/29 05:21:39;;;;;;;795.77;738.77;;;7.70;99.90;;;;;;6165367;23;20414;-84
2021/10/29 05:24:09;;;;;;;790.27;734.17;;;7.70;99.90;;;;;;6155903;23;20398;-84
2021/10/29 05:26:40;;;;;;;793.83;737.23;;;7.90;99.90;;;;;;6165667;23;20413;-84
2021/10/29 05:29:22;;;;;;;787.50;732.40;;;8.00;99.90;;;;;;6155344;23;20501;-85
2021/10/29 05:31:55;;;;;;;786.50;732.33;;;7.90;99.90;;;;;;6165819;23;20407;-84
2021/10/29 05:34:22;;;;;;;796.90;741.83;;;8.00;99.90;;;;;;6163969;23;20433;-84
2021/10/29 05:36:49;;;;;;;796.47;742.07;;;7.90;99.90;;;;;;6155853;23;20402;-84
2021/10/29 05:39:26;;;;;;;801.30;747.20;;;7.90;99.90;;;;;;6165916;23;20838;-84
2021/10/29 05:41:54;;;;;;;783.87;729.77;;;8.00;99.90;;;;;;6155398;23;20433;-84
2021/10/29 05:44:21;;;;;;;803.70;748.80;;;7.70;99.90;;;;;;6165445;23;21107;-84
2021/10/29 05:46:52;;;;;;;797.77;742.27;;;7.80;99.90;;;;;;6156833;23;20402;-85
2021/10/29 05:49:21;;;;;;;806.23;750.57;;;7.70;99.90;;;;;;6166116;23;20411;-84
2021/10/29 05:51:53;;;;;;;807.63;751.23;;;7.70;99.90;;;;;;6167606;23;20462;-83
2021/10/29 05:54:40;;;;;;;811.40;753.23;;;7.60;99.90;;;;;;6167211;23;20423;-84
2021/10/29 05:57:12;;;;;;;811.97;752.20;;;7.60;99.90;;;;;;6167493;23;20440;-86
2021/10/29 05:59:44;;;;;;;809.70;749.70;;;7.50;99.90;;;;;;6167470;23;20418;-85
2021/10/29 06:02:11;;;;;;;821.77;761.33;;;7.50;99.90;;;;;;6157818;23;20460;-85
2021/10/29 06:04:38;;;;;;;822.13;761.93;;;7.50;99.90;;;;;;6156673;23;20801;-85
2021/10/29 06:07:08;;;;;;;802.77;744.37;;;7.70;99.90;;;;;;6167606;23;20413;-86
2021/10/29 06:09:35;;;;;;;805.03;747.37;;;7.50;99.90;;;;;;6167050;23;20418;-86
2021/10/29 06:12:02;;;;;;;803.63;747.67;;;7.70;99.90;;;;;;6167670;23;20449;-84
2021/10/29 06:14:34;;;;;;;798.87;742.70;;;7.50;99.90;;;;;;6157662;23;20434;-85
2021/10/29 06:17:27;;;;;;;791.20;735.70;;;7.70;99.90;;;;;;6156991;23;20446;-86
2021/10/29 06:20:32;;;;;;;796.50;741.20;;;7.70;99.90;;;;;;6165299;23;20508;-85
2021/10/29 06:23:36;;;;;;;;;;;;;;;;;;;;;
2021/10/29 06:26:38;;;;;;;789.07;733.67;;;7.70;99.90;;;;;;6166810;23;20404;-86
2021/10/29 06:29:08;;;;;;;789.73;733.33;;;7.60;99.90;;;;;;6138292;23;20758;-86
2021/10/29 06:31:49;;;;;;;780.53;725.67;;;7.60;99.90;;;;;;6167027;23;20398;-86
2021/10/29 06:37:26;;;;;;;788.50;732.43;;;7.60;99.90;;;;;;6154602;23;20500;-85
2021/10/29 06:40:42;;;;;;;768.60;713.20;;;7.60;99.90;;;;;;6157192;23;20433;-87
2021/10/29 06:43:50;;;;;;;;;;;;;;;;;;;;;
2021/10/29 06:47:19;;;;;;;;;;;;;;;;;;;;;
2021/10/29 07:42:14;;;;;;;628.10;594.80;;;8.60;99.90;;;;;;6166534;23;20404;-85
2021/10/29 07:47:16;;;;;;;599.00;568.73;;;8.60;99.90;;;;;;6107335;23;20459;-77
2021/10/29 07:50:13;;;;;;;576.77;547.77;;;8.70;99.90;;;;;;6127151;23;20498;-87
2021/10/29 07:52:59;;;;;;;527.07;501.33;;;8.90;99.90;;;;;;6136832;23;20466;-87
2021/10/29 07:58:22;;;;;;;504.40;479.77;;;8.90;99.90;;;;;;6116654;23;20418;-87
2021/10/29 08:01:08;;;;;;;421.37;402.17;;;9.00;99.90;;;;;;6135506;23;20465;-87
2021/10/29 08:04:07;;;;;;;404.20;386.43;;;9.10;99.90;;;;;;6136782;23;20419;-87
2021/10/29 08:06:47;;;;;;;356.67;341.10;;;9.20;99.90;;;;;;6127092;23;20403;-87
2021/10/29 08:09:29;;;;;;;341.37;327.17;;;9.30;99.90;;;;;;6136765;23;20407;-88
2021/10/29 08:12:08;;;;;;;318.40;305.03;;;9.40;99.90;;;;;;6126755;23;20414;-87
2021/10/29 08:14:44;;;;;;;308.57;295.93;;;9.30;99.90;;;;;;6136790;23;20422;-88
2021/10/29 08:17:43;;;;;;;273.07;261.40;;;9.30;99.90;;;;;;6125492;23;20408;-88
2021/10/29 08:20:29;;;;;;;255.30;244.47;;;9.40;99.90;;;;;;6126959;23;20422;-88
2021/10/29 08:29:04;;;;;;;202.27;193.43;;;9.50;99.90;;;;;;6121597;23;20414;-88
2021/10/29 08:32:10;;;;;;;188.20;178.60;;;9.60;99.90;;;;;;6125263;23;20414;-87
2021/10/29 08:34:40;;;;;;;151.93;144.23;;;9.60;99.90;;;;;;6122558;23;20420;-88
2021/10/29 08:40:25;;;;;;;123.53;117.13;;;9.80;99.90;;;;;;6103667;23;20461;-87
2021/10/29 08:43:16;;;;;;;93.97;87.90;;;9.90;99.90;;;;;;6126336;23;20404;-87
2021/10/29 08:45:53;;;;;;;83.70;78.10;;;10.10;99.40;;;;;;6134616;23;20450;-86
2021/10/29 08:51:42;;;;;;;104.03;97.43;;;10.30;98.00;;;;;;6114561;23;20902;-87
2021/10/29 08:54:56;;;;;;;;;;;;;;;;;;;;;
2021/10/29 08:57:49;;;;;;;78.30;73.53;;;10.30;97.60;;;;;;6055587;23;20422;-87
2021/10/29 09:01:23;;;;;;;;;;;;;;;;;;;;;
2021/10/29 09:04:37;;;;;;;61.50;56.30;;;10.40;96.40;;;;;;6074977;23;20482;-88
2021/10/29 09:07:53;;;;;;;65.30;60.70;;;10.50;96.10;;;;;;5961753;24;20430;-87
2021/10/29 09:33:32;;;;;;;;;;;;;;;;;;;;;
2021/10/29 12:59:27;;;;;;;;;;;;;;;;;;;;;
2021/10/29 19:30:40;;;;;;;;;;;;;;;;;;;;;
2021/10/29 19:33:15;;;;;;;12.20;11.10;;;13.30;78.10;;;;;;6011732;23;20501;-87
2021/10/29 19:36:10;;;;;;;;;;;;;;;;;;;;;
2021/10/29 19:45:37;;;;;;;18.53;17.00;;;13.10;83.90;;;;;;6165414;23;20740;-88
